Time;durP1;ratioP1;P1;durP2;ratioP2;P2;SDS_P1;SDS_P2;PMS_P1;PMS_P2;Temp;Humidity;BMP_temperature;BMP_pressure;BME280_temperature;BME280_humidity;BME280_pressure;Samples;Min_cycle;Max_cycle;Signal;HPM_P1;HPM_P2
2023/09/12 00:01:40;;;;;;;15.10;11.63;;;;;;;;;;6092352;23;20011;-74
2023/09/12 00:04:06;;;;;;;17.27;11.32;;;;;;;;;;6092039;23;20006;-74
2023/09/12 00:06:31;;;;;;;14.70;11.00;;;;;;;;;;6094073;23;20002;-74
2023/09/12 00:08:57;;;;;;;16.60;11.05;;;;;;;;;;6092416;23;20003;-73
2023/09/12 00:11:25;;;;;;;17.02;11.23;;;;;;;;;;6094754;23;20006;-74
2023/09/12 00:13:51;;;;;;;18.98;10.80;;;;;;;;;;6093625;23;20029;-74
2023/09/12 00:16:17;;;;;;;16.35;11.55;;;;;;;;;;6094883;23;20038;-73
2023/09/12 00:18:42;;;;;;;13.93;10.65;;;;;;;;;;6094899;23;20081;-73
2023/09/12 00:21:08;;;;;;;15.18;11.10;;;;;;;;;;6094828;23;20420;-73
2023/09/12 00:23:34;;;;;;;15.88;11.63;;;;;;;;;;6091972;23;20092;-74
2023/09/12 00:25:59;;;;;;;14.73;10.85;;;;;;;;;;6093634;23;20086;-73
2023/09/12 00:28:25;;;;;;;14.32;11.93;;;;;;;;;;6091954;23;20372;-74
2023/09/12 00:30:51;;;;;;;15.95;11.60;;;;;;;;;;6093204;23;20077;-73
2023/09/12 00:33:17;;;;;;;15.75;11.13;;;;;;;;;;6091675;23;20006;-75
2023/09/12 00:35:43;;;;;;;17.65;11.38;;;;;;;;;;6091727;23;20013;-74
2023/09/12 00:38:09;;;;;;;17.48;11.32;;;;;;;;;;6091428;23;20071;-74
2023/09/12 00:40:35;;;;;;;13.35;10.85;;;;;;;;;;6091658;23;20537;-72
2023/09/12 00:43:00;;;;;;;15.80;10.73;;;;;;;;;;6094426;23;20006;-73
2023/09/12 00:45:26;;;;;;;13.07;10.73;;;;;;;;;;6093842;23;20006;-74
2023/09/12 00:47:53;;;;;;;13.40;10.65;;;;;;;;;;6095405;23;20525;-74
2023/09/12 00:50:23;;;;;;;15.63;12.10;;;;;;;;;;6095970;23;20065;-73
2023/09/12 00:52:49;;;;;;;15.27;11.52;;;;;;;;;;6093763;23;20014;-74
2023/09/12 00:55:15;;;;;;;15.45;11.02;;;;;;;;;;6093851;23;20010;-75
2023/09/12 00:57:41;;;;;;;13.43;11.02;;;;;;;;;;6094630;23;20345;-75
2023/09/12 01:00:11;;;;;;;17.13;11.30;;;;;;;;;;6093644;23;20003;-75
2023/09/12 01:02:44;;;;;;;15.30;11.30;;;;;;;;;;6093649;23;20069;-74
2023/09/12 01:05:10;;;;;;;15.70;11.93;;;;;;;;;;6095317;23;20030;-74
2023/09/12 01:07:37;;;;;;;13.90;11.52;;;;;;;;;;6093037;23;20010;-74
2023/09/12 01:10:06;;;;;;;14.73;11.20;;;;;;;;;;6095313;23;20574;-75
2023/09/12 01:12:32;;;;;;;15.73;11.38;;;;;;;;;;6093194;23;20376;-75
2023/09/12 01:14:58;;;;;;;18.23;11.70;;;;;;;;;;6094314;23;20030;-74
2023/09/12 01:17:24;;;;;;;16.67;11.45;;;;;;;;;;6092588;23;20034;-75
2023/09/12 01:19:50;;;;;;;13.70;11.15;;;;;;;;;;6094097;23;20427;-74
2023/09/12 01:22:35;;;;;;;16.33;11.32;;;;;;;;;;6094539;23;20010;-75
2023/09/12 01:25:22;;;;;;;18.42;11.95;;;;;;;;;;6094082;23;20693;-74
2023/09/12 01:27:51;;;;;;;16.58;11.57;;;;;;;;;;6094780;23;20010;-74
2023/09/12 01:30:22;;;;;;;15.32;10.70;;;;;;;;;;6094760;23;20002;-74
2023/09/12 01:32:48;;;;;;;13.88;11.75;;;;;;;;;;6092875;23;20513;-75
2023/09/12 01:35:14;;;;;;;14.65;11.55;;;;;;;;;;6091716;23;20026;-75
2023/09/12 01:37:40;;;;;;;13.00;11.23;;;;;;;;;;6094530;23;20024;-75
2023/09/12 01:40:07;;;;;;;15.75;11.82;;;;;;;;;;6092435;23;20098;-76
2023/09/12 01:42:44;;;;;;;14.05;11.77;;;;;;;;;;6094944;23;20078;-75
2023/09/12 01:45:13;;;;;;;19.10;12.00;;;;;;;;;;6093362;23;20013;-74
2023/09/12 01:47:40;;;;;;;17.20;11.30;;;;;;;;;;6094761;23;20369;-79
2023/09/12 01:50:08;;;;;;;16.63;11.75;;;;;;;;;;6092799;23;20010;-77
2023/09/12 01:52:36;;;;;;;14.48;11.82;;;;;;;;;;6095335;23;20006;-78
2023/09/12 01:55:02;;;;;;;15.75;10.80;;;;;;;;;;6095189;23;20006;-78
2023/09/12 01:57:29;;;;;;;15.98;11.65;;;;;;;;;;6093891;23;20014;-77
2023/09/12 01:59:54;;;;;;;14.00;10.68;;;;;;;;;;6095823;23;20069;-78
2023/09/12 02:02:20;;;;;;;18.30;12.48;;;;;;;;;;6098232;23;20003;-79
2023/09/12 02:05:03;;;;;;;13.93;11.63;;;;;;;;;;6095891;23;20006;-80
2023/09/12 02:07:31;;;;;;;15.48;12.00;;;;;;;;;;6097593;23;20002;-79
2023/09/12 02:09:56;;;;;;;15.30;11.68;;;;;;;;;;6097155;23;20026;-78
2023/09/12 02:12:22;;;;;;;20.85;12.00;;;;;;;;;;6099351;23;20007;-78
2023/09/12 02:14:47;;;;;;;16.70;11.63;;;;;;;;;;6096749;23;20006;-79
2023/09/12 02:17:13;;;;;;;16.98;12.43;;;;;;;;;;6106679;23;20045;-78
2023/09/12 02:19:38;;;;;;;14.00;11.05;;;;;;;;;;6125113;23;20001;-78
2023/09/12 02:22:04;;;;;;;16.40;13.63;;;;;;;;;;6124082;23;20002;-78
2023/09/12 02:24:30;;;;;;;16.67;11.48;;;;;;;;;;6122628;23;20064;-76
2023/09/12 02:26:55;;;;;;;15.25;12.20;;;;;;;;;;6125260;23;20096;-77
2023/09/12 02:29:20;;;;;;;15.10;12.18;;;;;;;;;;6124057;23;20178;-78
2023/09/12 02:31:46;;;;;;;16.60;12.45;;;;;;;;;;6097547;23;20080;-78
2023/09/12 02:34:11;;;;;;;16.80;11.98;;;;;;;;;;6097075;23;20342;-78
2023/09/12 02:36:37;;;;;;;17.58;12.02;;;;;;;;;;6097334;23;20006;-79
2023/09/12 02:39:03;;;;;;;19.98;13.43;;;;;;;;;;6096843;23;20065;-78
2023/09/12 02:41:28;;;;;;;15.85;12.40;;;;;;;;;;6123375;23;20541;-78
2023/09/12 02:43:54;;;;;;;17.80;13.07;;;;;;;;;;6122762;23;20006;-77
2023/09/12 02:46:20;;;;;;;15.88;12.35;;;;;;;;;;6096617;23;20010;-77
2023/09/12 02:48:45;;;;;;;17.35;12.50;;;;;;;;;;6122978;23;20467;-77
2023/09/12 02:51:12;;;;;;;16.60;11.98;;;;;;;;;;6096957;23;20002;-78
2023/09/12 02:53:37;;;;;;;15.95;12.55;;;;;;;;;;6097181;23;20319;-77
2023/09/12 02:56:03;;;;;;;14.35;11.63;;;;;;;;;;6096730;23;20084;-76
2023/09/12 02:58:28;;;;;;;18.13;12.30;;;;;;;;;;6097133;23;20040;-78
2023/09/12 03:00:54;;;;;;;15.60;12.32;;;;;;;;;;6123220;23;20041;-77
2023/09/12 03:03:20;;;;;;;17.80;12.40;;;;;;;;;;6123157;23;20006;-77
2023/09/12 03:05:46;;;;;;;18.83;13.45;;;;;;;;;;6097251;23;20509;-79
2023/09/12 03:08:11;;;;;;;17.75;12.13;;;;;;;;;;6097139;23;20032;-79
2023/09/12 03:10:37;;;;;;;14.65;12.88;;;;;;;;;;6097558;23;20058;-78
2023/09/12 03:13:02;;;;;;;16.13;12.65;;;;;;;;;;6096543;23;20031;-78
2023/09/12 03:15:28;;;;;;;14.23;11.88;;;;;;;;;;6096995;23;20006;-78
2023/09/12 03:17:53;;;;;;;15.65;12.73;;;;;;;;;;6122601;23;20022;-79
2023/09/12 03:20:19;;;;;;;16.85;13.15;;;;;;;;;;6122969;23;20006;-76
2023/09/12 03:22:46;;;;;;;16.30;12.05;;;;;;;;;;6123496;23;20076;-78
2023/09/12 03:25:11;;;;;;;16.88;12.40;;;;;;;;;;6097846;23;20070;-78
2023/09/12 03:27:37;;;;;;;16.15;12.63;;;;;;;;;;6097198;23;20015;-78
2023/09/12 03:30:04;;;;;;;18.30;12.35;;;;;;;;;;6123102;23;19998;-78
2023/09/12 03:32:29;;;;;;;17.08;12.55;;;;;;;;;;6097006;23;20470;-77
2023/09/12 03:34:55;;;;;;;17.38;12.23;;;;;;;;;;6096888;23;20096;-78
2023/09/12 03:37:21;;;;;;;18.58;12.52;;;;;;;;;;6097615;23;20104;-77
2023/09/12 03:39:47;;;;;;;16.63;12.48;;;;;;;;;;6096798;23;20014;-78
2023/09/12 03:42:12;;;;;;;16.75;12.43;;;;;;;;;;6096593;23;20009;-78
2023/09/12 03:44:38;;;;;;;15.93;12.60;;;;;;;;;;6097165;23;20151;-76
2023/09/12 03:47:04;;;;;;;17.90;12.27;;;;;;;;;;6122397;23;20006;-78
2023/09/12 03:49:29;;;;;;;15.23;12.43;;;;;;;;;;6096927;23;20112;-77
2023/09/12 03:51:55;;;;;;;15.10;12.57;;;;;;;;;;6096671;23;20028;-78
2023/09/12 03:54:20;;;;;;;18.83;13.20;;;;;;;;;;6122752;23;20191;-77
2023/09/12 03:56:46;;;;;;;17.48;12.95;;;;;;;;;;6097111;23;20038;-78
2023/09/12 03:59:11;;;;;;;14.55;11.43;;;;;;;;;;6096472;23;20350;-77
2023/09/12 04:01:37;;;;;;;16.38;12.32;;;;;;;;;;6122852;23;20002;-78
2023/09/12 04:04:03;;;;;;;13.65;11.65;;;;;;;;;;6096253;23;20002;-79
2023/09/12 04:06:29;;;;;;;15.45;12.85;;;;;;;;;;6097376;23;20013;-79
2023/09/12 04:08:54;;;;;;;16.70;12.15;;;;;;;;;;6121375;23;20024;-78
2023/09/12 04:11:20;;;;;;;18.63;12.23;;;;;;;;;;6123858;23;20005;-78
2023/09/12 04:13:45;;;;;;;17.42;13.07;;;;;;;;;;6117473;23;20009;-80
2023/09/12 04:16:11;;;;;;;16.33;13.40;;;;;;;;;;6097073;23;20010;-79
2023/09/12 04:18:36;;;;;;;15.88;12.63;;;;;;;;;;6124721;23;20025;-79
2023/09/12 04:21:02;;;;;;;18.88;12.70;;;;;;;;;;6098409;23;20410;-80
2023/09/12 04:23:29;;;;;;;16.52;12.30;;;;;;;;;;6123829;23;20012;-80
2023/09/12 04:25:54;;;;;;;16.75;12.45;;;;;;;;;;6124419;23;20356;-79
2023/09/12 04:28:20;;;;;;;23.80;12.40;;;;;;;;;;6098115;23;20010;-80
2023/09/12 04:30:45;;;;;;;16.88;12.70;;;;;;;;;;6098380;23;20006;-80
2023/09/12 04:33:11;;;;;;;18.48;12.68;;;;;;;;;;6124428;23;20116;-81
2023/09/12 04:35:36;;;;;;;19.70;13.02;;;;;;;;;;6125780;23;20068;-80
2023/09/12 04:38:02;;;;;;;21.08;12.95;;;;;;;;;;6100108;23;20106;-80
2023/09/12 04:40:28;;;;;;;20.70;13.15;;;;;;;;;;6126564;23;20089;-79
2023/09/12 04:42:54;;;;;;;22.52;13.10;;;;;;;;;;6099370;23;20037;-79
2023/09/12 04:45:19;;;;;;;15.52;12.50;;;;;;;;;;6100516;23;20289;-80
2023/09/12 04:47:46;;;;;;;17.75;12.60;;;;;;;;;;6136291;23;20017;-79
2023/09/12 04:50:11;;;;;;;17.70;12.63;;;;;;;;;;6131163;23;20024;-79
2023/09/12 04:52:37;;;;;;;19.40;12.10;;;;;;;;;;6097143;23;20929;-78
2023/09/12 04:55:03;;;;;;;21.48;13.77;;;;;;;;;;6097950;23;20404;-79
2023/09/12 04:57:30;;;;;;;21.23;13.70;;;;;;;;;;6098445;23;20005;-79
2023/09/12 04:59:58;;;;;;;23.17;14.25;;;;;;;;;;6097806;23;20085;-80
2023/09/12 05:02:24;;;;;;;20.85;13.23;;;;;;;;;;6122695;23;20013;-81
2023/09/12 05:04:49;;;;;;;17.85;13.38;;;;;;;;;;6099520;23;20100;-80
2023/09/12 05:07:15;;;;;;;18.05;13.32;;;;;;;;;;6118676;23;20002;-80
2023/09/12 05:09:40;;;;;;;17.73;13.55;;;;;;;;;;6114384;23;20140;-81
2023/09/12 05:12:06;;;;;;;19.45;13.27;;;;;;;;;;6107407;23;20022;-80
2023/09/12 05:14:33;;;;;;;19.17;13.43;;;;;;;;;;6131136;23;20009;-76
2023/09/12 05:16:58;;;;;;;19.75;15.75;;;;;;;;;;6128169;23;20024;-74
2023/09/12 05:19:26;;;;;;;18.67;13.98;;;;;;;;;;6102870;23;20069;-78
2023/09/12 05:21:51;;;;;;;19.05;15.18;;;;;;;;;;6134616;23;20006;-77
2023/09/12 05:24:18;;;;;;;18.02;13.70;;;;;;;;;;6104769;23;20033;-77
2023/09/12 05:26:45;;;;;;;19.92;13.27;;;;;;;;;;6133681;23;20001;-76
2023/09/12 05:29:13;;;;;;;19.67;14.10;;;;;;;;;;6136889;23;20447;-78
2023/09/12 05:31:38;;;;;;;54.25;17.05;;;;;;;;;;6122781;23;20001;-77
2023/09/12 05:34:04;;;;;;;19.00;14.27;;;;;;;;;;6095806;23;20018;-79
2023/09/12 05:36:30;;;;;;;18.27;14.25;;;;;;;;;;6124496;23;20025;-77
2023/09/12 05:38:55;;;;;;;19.05;13.52;;;;;;;;;;6123919;23;20006;-75
2023/09/12 05:41:21;;;;;;;21.80;14.02;;;;;;;;;;6123707;23;20010;-79
2023/09/12 05:43:47;;;;;;;17.50;12.70;;;;;;;;;;6094795;23;20036;-76
2023/09/12 05:46:13;;;;;;;20.10;13.80;;;;;;;;;;6124256;23;20002;-76
2023/09/12 05:48:38;;;;;;;19.83;14.15;;;;;;;;;;6123272;23;20396;-80
2023/09/12 05:51:04;;;;;;;18.65;13.75;;;;;;;;;;6122292;23;20323;-77
2023/09/12 05:53:34;;;;;;;29.52;14.75;;;;;;;;;;6120578;23;20016;-77
2023/09/12 05:56:00;;;;;;;20.52;14.73;;;;;;;;;;6097382;23;20017;-77
2023/09/12 05:58:26;;;;;;;22.40;14.52;;;;;;;;;;6124457;23;20006;-79
2023/09/12 06:00:52;;;;;;;21.10;15.70;;;;;;;;;;6097614;23;20036;-75
2023/09/12 06:03:17;;;;;;;28.40;15.93;;;;;;;;;;6095673;23;20833;-75
2023/09/12 06:05:43;;;;;;;27.80;14.73;;;;;;;;;;6095774;23;20028;-76
2023/09/12 06:08:08;;;;;;;28.13;15.20;;;;;;;;;;6096434;23;20005;-79
2023/09/12 06:10:34;;;;;;;19.65;14.23;;;;;;;;;;6118256;23;20725;-74
2023/09/12 06:12:59;;;;;;;20.92;13.23;;;;;;;;;;6121013;23;20380;-77
2023/09/12 06:15:25;;;;;;;20.83;13.93;;;;;;;;;;6119084;23;20005;-80
2023/09/12 06:17:51;;;;;;;21.92;13.60;;;;;;;;;;6127519;23;20024;-79
2023/09/12 06:20:16;;;;;;;20.25;13.70;;;;;;;;;;6070096;23;20156;-77
2023/09/12 06:22:43;;;;;;;21.48;13.50;;;;;;;;;;6129772;23;20077;-75
2023/09/12 06:25:09;;;;;;;18.83;13.55;;;;;;;;;;6128769;23;20002;-78
2023/09/12 06:27:35;;;;;;;30.08;15.15;;;;;;;;;;6096757;23;20002;-76
2023/09/12 06:30:01;;;;;;;21.73;14.57;;;;;;;;;;6093233;23;20006;-75
2023/09/12 06:32:27;;;;;;;25.42;14.40;;;;;;;;;;6115351;23;20036;-74
2023/09/12 06:34:53;;;;;;;19.70;12.77;;;;;;;;;;6121060;23;20052;-76
2023/09/12 06:37:18;;;;;;;22.38;13.32;;;;;;;;;;6095705;23;20088;-76
2023/09/12 06:39:44;;;;;;;17.65;13.73;;;;;;;;;;6093272;23;20017;-77
2023/09/12 06:42:12;;;;;;;18.50;14.05;;;;;;;;;;6095879;23;20301;-79
2023/09/12 06:44:37;;;;;;;22.27;14.27;;;;;;;;;;6095606;23;20125;-75
2023/09/12 06:47:05;;;;;;;18.30;14.75;;;;;;;;;;6097216;23;20430;-75
2023/09/12 06:49:32;;;;;;;17.17;14.10;;;;;;;;;;6123015;23;20013;-76
2023/09/12 06:51:57;;;;;;;37.72;17.17;;;;;;;;;;6096722;23;20006;-77
2023/09/12 06:54:24;;;;;;;15.88;13.00;;;;;;;;;;6122888;23;20442;-77
2023/09/12 06:56:50;;;;;;;22.42;13.85;;;;;;;;;;6099514;23;20458;-79
2023/09/12 06:59:18;;;;;;;25.17;21.65;;;;;;;;;;6077146;23;20133;-78
2023/09/12 07:01:44;;;;;;;25.77;15.50;;;;;;;;;;6106788;23;20012;-78
2023/09/12 07:04:10;;;;;;;17.70;13.25;;;;;;;;;;6101873;23;20009;-78
2023/09/12 07:06:35;;;;;;;17.23;13.32;;;;;;;;;;6130786;23;20509;-76
2023/09/12 07:09:04;;;;;;;18.08;13.80;;;;;;;;;;6132018;23;20458;-79
2023/09/12 07:11:30;;;;;;;16.75;13.15;;;;;;;;;;6126570;23;20014;-79
2023/09/12 07:13:55;;;;;;;20.77;14.30;;;;;;;;;;6092357;23;20009;-78
2023/09/12 07:16:21;;;;;;;18.75;13.23;;;;;;;;;;6094106;23;20009;-79
2023/09/12 07:18:49;;;;;;;15.95;13.07;;;;;;;;;;6126683;23;20045;-79
2023/09/12 07:21:17;;;;;;;17.38;13.02;;;;;;;;;;6123454;23;20049;-80
2023/09/12 07:23:43;;;;;;;22.48;14.20;;;;;;;;;;6087409;23;20498;-78
2023/09/12 07:26:13;;;;;;;19.08;13.57;;;;;;;;;;6093413;23;20089;-78
2023/09/12 07:28:40;;;;;;;21.98;14.07;;;;;;;;;;6102611;23;20005;-76
2023/09/12 07:31:06;;;;;;;21.02;15.73;;;;;;;;;;6107242;23;20395;-76
2023/09/12 07:33:33;;;;;;;16.20;13.30;;;;;;;;;;6129111;23;20092;-77
2023/09/12 07:35:59;;;;;;;23.35;13.57;;;;;;;;;;6116755;23;20010;-75
2023/09/12 07:38:26;;;;;;;23.00;13.57;;;;;;;;;;6091100;23;20014;-76
2023/09/12 07:40:53;;;;;;;20.98;13.40;;;;;;;;;;6116775;23;20084;-73
2023/09/12 07:43:19;;;;;;;21.60;13.10;;;;;;;;;;6114722;23;20085;-75
2023/09/12 07:45:44;;;;;;;17.13;13.25;;;;;;;;;;6116695;23;20013;-78
2023/09/12 07:48:13;;;;;;;15.48;13.40;;;;;;;;;;6117356;23;20005;-76
2023/09/12 07:50:39;;;;;;;20.95;14.07;;;;;;;;;;6116278;23;20328;-78
2023/09/12 07:53:05;;;;;;;18.65;13.15;;;;;;;;;;6114087;23;20013;-77
2023/09/12 07:55:35;;;;;;;21.25;13.65;;;;;;;;;;6118946;23;20049;-77
2023/09/12 07:58:04;;;;;;;19.83;14.33;;;;;;;;;;6093782;23;20072;-78
2023/09/12 08:00:30;;;;;;;17.92;13.93;;;;;;;;;;6069608;23;20252;-78
2023/09/12 08:02:55;;;;;;;16.60;12.32;;;;;;;;;;6114802;23;20434;-76
2023/09/12 08:05:21;;;;;;;18.83;13.15;;;;;;;;;;6119753;23;20016;-78
2023/09/12 08:07:46;;;;;;;17.10;13.23;;;;;;;;;;6117975;23;20006;-77
2023/09/12 08:10:12;;;;;;;25.25;16.95;;;;;;;;;;6092906;23;20428;-77
2023/09/12 08:12:39;;;;;;;20.67;13.80;;;;;;;;;;6082062;23;20679;-78
2023/09/12 08:15:06;;;;;;;22.38;14.02;;;;;;;;;;6118073;23;20010;-77
2023/09/12 08:17:33;;;;;;;21.80;13.05;;;;;;;;;;6088221;23;20029;-76
2023/09/12 08:19:59;;;;;;;18.27;12.90;;;;;;;;;;6063307;23;20097;-76
2023/09/12 08:22:25;;;;;;;24.90;13.75;;;;;;;;;;6085235;23;20026;-79
2023/09/12 08:24:50;;;;;;;18.80;12.95;;;;;;;;;;6063016;23;20007;-77
2023/09/12 08:27:16;;;;;;;18.05;12.65;;;;;;;;;;6062937;23;20016;-78
2023/09/12 08:29:44;;;;;;;20.75;13.00;;;;;;;;;;6063240;23;20329;-77
2023/09/12 08:32:11;;;;;;;20.73;12.77;;;;;;;;;;6086783;23;20010;-77
2023/09/12 08:34:37;;;;;;;16.67;14.18;;;;;;;;;;6059160;23;20447;-77
2023/09/12 08:37:04;;;;;;;16.65;13.20;;;;;;;;;;6087421;23;20012;-77
2023/09/12 08:39:42;;;;;;;19.98;13.55;;;;;;;;;;6062257;23;20049;-76
2023/09/12 08:42:15;;;;;;;18.02;12.30;;;;;;;;;;6063100;23;20380;-77
2023/09/12 08:44:42;;;;;;;18.55;13.13;;;;;;;;;;6087556;23;20407;-74
2023/09/12 08:47:09;;;;;;;21.42;14.15;;;;;;;;;;6064877;23;20082;-73
2023/09/12 08:49:37;;;;;;;13.93;12.07;;;;;;;;;;6091935;23;20003;-78
2023/09/12 08:52:06;;;;;;;21.80;14.35;;;;;;;;;;6090741;23;20014;-74
2023/09/12 08:54:32;;;;;;;20.58;12.75;;;;;;;;;;6092021;23;20010;-78
2023/09/12 08:57:01;;;;;;;16.10;12.20;;;;;;;;;;6093007;23;20502;-75
2023/09/12 08:59:27;;;;;;;19.10;12.77;;;;;;;;;;6076287;23;20010;-73
2023/09/12 09:01:55;;;;;;;19.95;11.77;;;;;;;;;;6064930;23;20068;-75
2023/09/12 09:04:22;;;;;;;16.75;12.30;;;;;;;;;;6087173;23;20375;-77
2023/09/12 09:06:49;;;;;;;16.60;11.65;;;;;;;;;;6069461;23;20143;-79
2023/09/12 09:09:15;;;;;;;19.13;12.27;;;;;;;;;;6070642;23;20006;-76
2023/09/12 09:11:41;;;;;;;16.00;12.40;;;;;;;;;;6069855;23;20085;-76
2023/09/12 09:14:07;;;;;;;18.42;12.68;;;;;;;;;;6085815;23;20364;-78
2023/09/12 09:16:35;;;;;;;13.70;11.85;;;;;;;;;;6090017;23;20431;-76
2023/09/12 09:19:03;;;;;;;20.45;12.05;;;;;;;;;;6065440;23;20010;-77
2023/09/12 09:21:34;;;;;;;15.57;11.10;;;;;;;;;;6088957;23;20006;-79
2023/09/12 09:24:03;;;;;;;19.27;13.35;;;;;;;;;;6058526;23;20089;-76
2023/09/12 09:26:46;;;;;;;17.40;12.20;;;;;;;;;;6088375;23;20014;-79
2023/09/12 09:29:17;;;;;;;13.15;11.27;;;;;;;;;;6088516;23;20208;-78
2023/09/12 09:31:44;;;;;;;16.05;11.70;;;;;;;;;;6063097;23;20117;-79
2023/09/12 09:34:14;;;;;;;14.00;11.93;;;;;;;;;;6059732;23;20293;-77
2023/09/12 09:36:53;;;;;;;16.70;11.90;;;;;;;;;;6087230;23;20014;-79
2023/09/12 09:39:21;;;;;;;18.48;10.63;;;;;;;;;;6063717;23;20006;-78
2023/09/12 09:41:51;;;;;;;15.00;10.40;;;;;;;;;;6093967;23;20006;-79
2023/09/12 09:44:20;;;;;;;19.90;11.38;;;;;;;;;;6063359;23;20033;-78
2023/09/12 09:46:50;;;;;;;18.05;11.57;;;;;;;;;;6065028;23;20384;-78
2023/09/12 09:49:18;;;;;;;21.90;11.50;;;;;;;;;;6065844;23;20104;-79
2023/09/12 09:51:45;;;;;;;13.82;12.00;;;;;;;;;;6089712;23;20007;-77
2023/09/12 09:54:14;;;;;;;16.00;12.20;;;;;;;;;;6084703;23;20022;-77
2023/09/12 09:56:53;;;;;;;15.95;11.40;;;;;;;;;;6089162;23;20105;-77
2023/09/12 09:59:24;;;;;;;15.77;11.55;;;;;;;;;;6060692;23;20017;-73
2023/09/12 10:01:51;;;;;;;14.98;10.32;;;;;;;;;;6088948;23;20010;-74
2023/09/12 10:04:18;;;;;;;14.48;10.93;;;;;;;;;;6056472;23;20002;-77
2023/09/12 10:06:45;;;;;;;15.50;10.23;;;;;;;;;;6087787;23;20010;-75
2023/09/12 10:09:13;;;;;;;17.08;11.65;;;;;;;;;;6088227;23;20010;-77
2023/09/12 10:11:41;;;;;;;15.85;9.77;;;;;;;;;;6089116;23;20002;-78
2023/09/12 10:14:07;;;;;;;18.50;10.80;;;;;;;;;;6060439;23;20006;-77
2023/09/12 10:16:41;;;;;;;13.98;9.50;;;;;;;;;;6065615;23;20065;-76
2023/09/12 10:19:13;;;;;;;15.75;10.30;;;;;;;;;;6063473;23;20316;-77
2023/09/12 10:21:57;;;;;;;17.25;10.45;;;;;;;;;;6090906;23;20333;-78
2023/09/12 10:24:24;;;;;;;14.85;10.52;;;;;;;;;;6087972;23;20050;-78
2023/09/12 10:26:51;;;;;;;16.13;10.80;;;;;;;;;;6104134;23;20009;-78
2023/09/12 10:29:17;;;;;;;18.38;10.65;;;;;;;;;;6103231;23;20692;-83
2023/09/12 10:31:44;;;;;;;12.68;10.25;;;;;;;;;;6077202;23;20054;-80
2023/09/12 10:34:13;;;;;;;16.13;10.02;;;;;;;;;;6098520;23;20017;-81
2023/09/12 10:36:40;;;;;;;15.80;11.10;;;;;;;;;;6078997;23;20098;-79
2023/09/12 10:39:14;;;;;;;18.35;11.43;;;;;;;;;;6104520;23;20021;-78
2023/09/12 10:41:40;;;;;;;16.23;11.18;;;;;;;;;;6102225;23;20006;-78
2023/09/12 10:44:14;;;;;;;21.98;11.65;;;;;;;;;;6094485;23;20006;-78
2023/09/12 10:46:41;;;;;;;16.35;11.48;;;;;;;;;;6072387;23;20045;-79
2023/09/12 10:49:12;;;;;;;17.38;10.15;;;;;;;;;;6066195;23;20003;-78
2023/09/12 10:51:49;;;;;;;13.88;10.65;;;;;;;;;;6061809;23;20014;-80
2023/09/12 10:54:26;;;;;;;18.65;11.35;;;;;;;;;;6084951;23;20014;-77
2023/09/12 10:57:13;;;;;;;18.23;10.90;;;;;;;;;;6066499;23;20463;-80
2023/09/12 11:00:13;;;;;;;19.02;11.05;;;;;;;;;;6063137;23;20057;-79
2023/09/12 11:02:55;;;;;;;11.23;9.70;;;;;;;;;;6086320;23;20006;-79
2023/09/12 11:05:31;;;;;;;12.32;8.95;;;;;;;;;;6088609;23;20065;-79
2023/09/12 11:07:58;;;;;;;11.13;8.40;;;;;;;;;;6089639;23;20006;-78
2023/09/12 11:10:25;;;;;;;13.57;9.10;;;;;;;;;;6064787;23;20682;-81
2023/09/12 11:12:53;;;;;;;14.23;9.48;;;;;;;;;;6035163;23;20013;-78
2023/09/12 11:15:23;;;;;;;17.80;9.38;;;;;;;;;;6042059;23;20014;-77
2023/09/12 11:18:00;;;;;;;12.70;8.95;;;;;;;;;;6092588;23;20104;-78
2023/09/12 11:20:25;;;;;;;12.73;8.50;;;;;;;;;;6092378;23;20002;-78
2023/09/12 11:22:52;;;;;;;12.45;9.57;;;;;;;;;;6063884;23;20094;-77
2023/09/12 11:25:26;;;;;;;12.45;8.98;;;;;;;;;;6087152;23;20030;-79
2023/09/12 11:27:51;;;;;;;10.07;7.55;;;;;;;;;;6089733;23;20021;-80
2023/09/12 11:30:25;;;;;;;8.73;7.88;;;;;;;;;;6089191;23;20006;-82
2023/09/12 11:32:53;;;;;;;10.57;7.40;;;;;;;;;;6063413;23;20312;-78
2023/09/12 11:35:26;;;;;;;9.60;7.45;;;;;;;;;;6064003;23;20132;-78
2023/09/12 11:37:58;;;;;;;10.82;7.65;;;;;;;;;;6065994;23;20063;-80
2023/09/12 11:40:45;;;;;;;9.38;7.13;;;;;;;;;;6089830;23;20138;-78
2023/09/12 11:43:25;;;;;;;9.85;7.13;;;;;;;;;;6088597;23;20009;-78
2023/09/12 11:45:51;;;;;;;13.00;6.90;;;;;;;;;;6063430;23;20006;-81
2023/09/12 11:48:18;;;;;;;9.13;7.07;;;;;;;;;;6039596;23;20016;-79
2023/09/12 11:50:58;;;;;;;17.80;7.40;;;;;;;;;;6063683;23;20093;-78
2023/09/12 11:53:30;;;;;;;9.02;6.63;;;;;;;;;;6082809;23;20038;-78
2023/09/12 11:56:01;;;;;;;9.45;7.25;;;;;;;;;;6064713;23;20003;-78
2023/09/12 11:58:27;;;;;;;9.65;6.45;;;;;;;;;;6089887;23;20294;-78
2023/09/12 12:00:55;;;;;;;12.05;6.72;;;;;;;;;;6063261;23;20101;-79
2023/09/12 12:03:24;;;;;;;9.52;7.10;;;;;;;;;;6064140;23;20073;-79
2023/09/12 12:05:50;;;;;;;15.10;6.75;;;;;;;;;;6065779;23;20037;-79
2023/09/12 12:08:18;;;;;;;9.48;6.63;;;;;;;;;;6063822;23;20462;-78
2023/09/12 12:10:52;;;;;;;14.68;7.53;;;;;;;;;;6061445;23;20189;-82
2023/09/12 12:13:21;;;;;;;11.70;8.30;;;;;;;;;;6062440;23;20011;-80
2023/09/12 12:15:47;;;;;;;15.40;8.32;;;;;;;;;;6088017;23;20014;-79
2023/09/12 12:18:14;;;;;;;8.60;7.63;;;;;;;;;;6063169;23;20031;-76
2023/09/12 12:20:39;;;;;;;15.02;8.00;;;;;;;;;;6060653;23;20047;-79
2023/09/12 12:23:14;;;;;;;17.58;8.07;;;;;;;;;;6060376;23;20002;-78
2023/09/12 12:25:40;;;;;;;13.50;8.60;;;;;;;;;;6039409;23;20014;-80
2023/09/12 12:28:05;;;;;;;10.60;8.15;;;;;;;;;;6059764;23;20109;-79
2023/09/12 12:30:33;;;;;;;12.68;7.75;;;;;;;;;;6060357;23;20002;-80
2023/09/12 12:33:01;;;;;;;12.82;7.25;;;;;;;;;;6058808;23;20058;-79
2023/09/12 12:35:32;;;;;;;8.77;7.75;;;;;;;;;;6061828;23;20062;-78
2023/09/12 12:38:00;;;;;;;11.55;7.38;;;;;;;;;;6060877;23;20433;-78
2023/09/12 12:40:26;;;;;;;8.52;7.63;;;;;;;;;;6057793;23;20330;-79
2023/09/12 12:42:54;;;;;;;10.40;7.55;;;;;;;;;;6060689;23;20006;-80
2023/09/12 12:45:23;;;;;;;14.50;8.00;;;;;;;;;;6059459;23;20488;-81
2023/09/12 12:48:06;;;;;;;14.10;7.82;;;;;;;;;;6062921;23;20010;-79
2023/09/12 12:50:36;;;;;;;16.58;8.27;;;;;;;;;;6084832;23;20002;-81
2023/09/12 12:53:02;;;;;;;20.08;8.88;;;;;;;;;;6059997;23;20062;-80
2023/09/12 12:55:28;;;;;;;11.77;8.63;;;;;;;;;;6061205;23;20010;-82
2023/09/12 12:57:53;;;;;;;10.73;8.77;;;;;;;;;;6038675;23;20014;-81
2023/09/12 13:00:21;;;;;;;14.55;8.60;;;;;;;;;;6060936;23;20037;-81
2023/09/12 13:02:46;;;;;;;10.27;8.13;;;;;;;;;;6060551;23;20033;-81
2023/09/12 13:05:27;;;;;;;11.32;8.75;;;;;;;;;;6060292;23;20014;-77
2023/09/12 13:07:53;;;;;;;9.15;8.25;;;;;;;;;;6060194;23;20038;-79
2023/09/12 13:10:20;;;;;;;14.18;9.07;;;;;;;;;;6065730;23;20421;-81
2023/09/12 13:12:46;;;;;;;13.23;7.68;;;;;;;;;;6062289;23;20017;-78
2023/09/12 13:15:14;;;;;;;11.63;8.82;;;;;;;;;;6065221;23;20026;-79
2023/09/12 13:17:43;;;;;;;14.52;8.57;;;;;;;;;;6066091;23;20027;-79
2023/09/12 13:20:09;;;;;;;12.38;8.18;;;;;;;;;;6066153;23;20013;-81
2023/09/12 13:22:36;;;;;;;15.25;8.32;;;;;;;;;;6065168;23;20003;-80
2023/09/12 13:25:02;;;;;;;14.57;8.60;;;;;;;;;;6064355;23;20085;-80
2023/09/12 13:27:28;;;;;;;10.88;8.00;;;;;;;;;;6062511;23;20315;-78
2023/09/12 13:29:53;;;;;;;12.98;8.35;;;;;;;;;;6063008;23;20038;-77
2023/09/12 13:32:20;;;;;;;9.15;7.70;;;;;;;;;;6055404;23;20018;-78
2023/09/12 13:34:45;;;;;;;8.70;7.82;;;;;;;;;;6060680;23;20011;-80
2023/09/12 13:37:11;;;;;;;12.45;7.13;;;;;;;;;;6059585;23;20428;-79
2023/09/12 13:39:38;;;;;;;15.00;8.10;;;;;;;;;;6061133;23;20006;-80
2023/09/12 13:42:08;;;;;;;10.38;7.30;;;;;;;;;;6064287;23;20456;-79
2023/09/12 13:44:34;;;;;;;34.92;9.40;;;;;;;;;;6065319;23;20015;-78
2023/09/12 13:46:59;;;;;;;10.15;7.45;;;;;;;;;;6062126;23;20362;-76
2023/09/12 13:49:25;;;;;;;9.68;7.05;;;;;;;;;;6065216;23;20282;-81
2023/09/12 13:51:50;;;;;;;8.60;7.35;;;;;;;;;;6065203;23;20413;-77
2023/09/12 13:54:16;;;;;;;10.88;7.28;;;;;;;;;;6062689;23;20022;-78
2023/09/12 13:56:42;;;;;;;10.00;6.93;;;;;;;;;;6061798;23;20073;-79
2023/09/12 13:59:09;;;;;;;10.10;6.88;;;;;;;;;;6063851;23;20082;-77
2023/09/12 14:01:35;;;;;;;11.90;7.97;;;;;;;;;;6065568;23;20083;-79
2023/09/12 14:04:03;;;;;;;11.57;9.05;;;;;;;;;;6061207;23;20533;-78
2023/09/12 14:06:30;;;;;;;15.70;7.38;;;;;;;;;;6060632;23;20011;-77
2023/09/12 14:08:56;;;;;;;10.50;7.13;;;;;;;;;;6061275;23;20091;-77
2023/09/12 14:11:21;;;;;;;11.30;6.72;;;;;;;;;;6063618;23;20029;-78
2023/09/12 14:13:48;;;;;;;13.75;8.18;;;;;;;;;;6062350;23;20014;-78
2023/09/12 14:16:13;;;;;;;11.15;7.57;;;;;;;;;;6063700;23;20011;-78
2023/09/12 14:18:39;;;;;;;10.10;6.80;;;;;;;;;;6061514;23;20027;-78
2023/09/12 14:21:05;;;;;;;10.45;6.82;;;;;;;;;;6061025;23;20061;-79
2023/09/12 14:23:30;;;;;;;11.45;6.55;;;;;;;;;;6058869;23;20015;-78